createdAt,value
2019-03-29T00:02:15.371Z,1035.2
2019-03-29T00:07:15.576Z,1035.1
2019-03-29T00:12:15.441Z,1034.9
2019-03-29T00:17:15.463Z,1035
2019-03-29T00:22:15.421Z,1035.1
2019-03-29T00:27:15.476Z,1035
2019-03-29T00:32:15.493Z,1034.8
2019-03-29T00:37:15.414Z,1034.9
2019-03-29T00:42:16.919Z,1034.8
2019-03-29T00:47:15.718Z,1034.9
2019-03-29T00:52:17.133Z,1034.6
2019-03-29T00:57:15.677Z,1034.8
2019-03-29T01:02:15.687Z,1034.8
2019-03-29T01:07:15.689Z,1034.7
2019-03-29T01:12:15.681Z,1034.7
2019-03-29T01:17:16.215Z,1034.7
2019-03-29T01:22:16.192Z,1034.6
2019-03-29T01:27:16.207Z,1034.7
2019-03-29T01:32:16.529Z,1034.6
2019-03-29T01:37:17.236Z,1034.6
2019-03-29T01:42:16.232Z,1034.5
2019-03-29T01:47:16.217Z,1034.5
2019-03-29T01:52:16.226Z,1034.5
2019-03-29T01:57:19.230Z,1034.5
2019-03-29T02:02:16.235Z,1034.5
2019-03-29T02:07:16.220Z,1034.5
2019-03-29T02:12:16.225Z,1034.4
2019-03-29T02:17:16.229Z,1034.4
2019-03-29T02:22:16.298Z,1034.4
2019-03-29T02:27:16.237Z,1034.4
2019-03-29T02:32:16.228Z,1034.5
2019-03-29T02:37:16.259Z,1034.5
2019-03-29T02:42:16.248Z,1034.6
2019-03-29T02:47:16.277Z,1034.6
2019-03-29T02:52:16.256Z,1034.5
2019-03-29T02:57:16.401Z,1034.6
2019-03-29T03:02:16.266Z,1034.8
2019-03-29T03:07:16.249Z,1034.8
2019-03-29T03:12:16.280Z,1034.7
2019-03-29T03:17:16.281Z,1034.8
2019-03-29T03:22:16.475Z,1034.7
2019-03-29T03:27:16.513Z,1034.9
2019-03-29T03:32:16.283Z,1034.9
2019-03-29T03:37:16.432Z,1034.9
2019-03-29T03:42:16.286Z,1034.9
2019-03-29T03:47:16.314Z,1034.9
2019-03-29T03:52:16.328Z,1034.9
2019-03-29T03:57:16.345Z,1034.9
2019-03-29T04:02:16.259Z,1034.9
2019-03-29T04:07:16.282Z,1034.9
2019-03-29T04:12:16.321Z,1035
2019-03-29T04:17:16.314Z,1035
2019-03-29T04:22:16.646Z,1034.9
2019-03-29T04:27:16.332Z,1034.9
2019-03-29T04:32:16.311Z,1034.9
2019-03-29T04:37:16.419Z,1034.9
2019-03-29T04:42:16.302Z,1035
2019-03-29T04:47:16.302Z,1035
2019-03-29T04:52:16.321Z,1035
2019-03-29T04:57:16.324Z,1035
2019-03-29T05:02:16.322Z,1035
2019-03-29T05:07:16.302Z,1035
2019-03-29T05:12:16.327Z,1035
2019-03-29T05:17:16.379Z,1035.1
2019-03-29T05:22:16.346Z,1035.1
2019-03-29T05:27:16.362Z,1035.2
2019-03-29T05:32:16.332Z,1035.2
2019-03-29T05:37:16.345Z,1035.2
2019-03-29T05:42:16.368Z,1035.2
2019-03-29T05:47:16.341Z,1035.3
2019-03-29T05:52:16.350Z,1035.4
2019-03-29T05:57:16.368Z,1035.4
2019-03-29T06:02:16.335Z,1035.4
2019-03-29T06:07:16.353Z,1035.4
2019-03-29T06:12:16.343Z,1035.3
2019-03-29T06:17:17.404Z,1035.2
2019-03-29T06:22:17.538Z,1035.2
2019-03-29T06:27:17.469Z,1035.2
2019-03-29T06:32:17.426Z,1035.2
2019-03-29T06:37:17.467Z,1035.2
2019-03-29T06:42:17.506Z,1035.1
2019-03-29T06:47:17.721Z,1035.1
2019-03-29T06:52:17.626Z,1035.1
2019-03-29T06:57:17.582Z,1034.9
2019-03-29T07:02:17.586Z,1034.9
2019-03-29T07:07:17.582Z,1034.8
2019-03-29T07:12:17.606Z,1034.8
2019-03-29T07:17:17.592Z,1034.7
2019-03-29T07:22:17.636Z,1034.7
2019-03-29T07:27:17.638Z,1034.7
2019-03-29T07:32:17.728Z,1034.6
2019-03-29T07:37:17.585Z,1034.6
2019-03-29T07:42:17.616Z,1034.5
2019-03-29T07:47:17.602Z,1034.5
2019-03-29T07:52:17.602Z,1034.6
2019-03-29T07:57:20.564Z,1034.5
2019-03-29T08:02:20.566Z,1034.3
2019-03-29T08:07:31.630Z,1034.3
2019-03-29T08:12:22.491Z,1034.3
2019-03-29T08:17:20.575Z,1034.1
2019-03-29T08:22:20.568Z,1034.1
2019-03-29T08:27:20.582Z,1034.1
2019-03-29T08:32:20.609Z,1034
2019-03-29T08:37:20.721Z,1033.8
2019-03-29T08:42:20.639Z,1033.8
2019-03-29T08:47:20.604Z,1033.8
2019-03-29T08:52:20.591Z,1033.7
2019-03-29T08:57:20.538Z,1033.7
2019-03-29T09:02:20.607Z,1033.6
2019-03-29T09:07:20.753Z,1033.7
2019-03-29T09:12:20.625Z,1033.7
2019-03-29T09:17:20.536Z,1033.7
2019-03-29T09:22:20.723Z,1033.7
2019-03-29T09:27:20.711Z,1033.6
2019-03-29T09:32:20.612Z,1033.4
2019-03-29T09:37:20.612Z,1033.2
2019-03-29T09:42:30.856Z,1033.1
2019-03-29T09:47:20.617Z,1033.2
2019-03-29T09:52:20.618Z,1033
2019-03-29T09:57:20.603Z,1033
2019-03-29T10:02:20.605Z,1032.9
2019-03-29T10:07:20.619Z,1032.8
2019-03-29T10:12:20.660Z,1032.7
2019-03-29T10:17:20.676Z,1032.7
2019-03-29T10:22:20.610Z,1032.5
2019-03-29T10:27:20.638Z,1032.6
2019-03-29T10:32:20.640Z,1032.5
2019-03-29T10:37:20.635Z,1032.6
2019-03-29T10:42:20.643Z,1032.4
2019-03-29T10:47:20.631Z,1032.5
2019-03-29T10:52:20.633Z,1032.4
2019-03-29T10:57:20.652Z,1032.2
2019-03-29T11:02:20.657Z,1032.3
2019-03-29T11:07:20.669Z,1032.2
2019-03-29T11:12:20.692Z,1032.2
2019-03-29T11:17:20.675Z,1032
2019-03-29T11:22:20.659Z,1032
2019-03-29T11:27:22.995Z,1032
2019-03-29T11:32:20.682Z,1032
2019-03-29T11:37:20.696Z,1032
2019-03-29T11:42:20.677Z,1031.8
2019-03-29T11:47:20.683Z,1031.6
2019-03-29T11:52:20.687Z,1031.5
2019-03-29T11:57:20.685Z,1031.5
2019-03-29T12:02:32.201Z,1031.4
2019-03-29T12:07:20.679Z,1031.4
2019-03-29T12:12:20.705Z,1031.2
2019-03-29T12:17:20.693Z,1031.2
2019-03-29T12:22:20.761Z,1031.1
2019-03-29T12:27:20.761Z,1031.2
2019-03-29T12:32:20.762Z,1031.1
2019-03-29T12:37:20.839Z,1030.9
2019-03-29T12:42:20.730Z,1030.8
2019-03-29T12:47:20.710Z,1030.7
2019-03-29T12:52:20.723Z,1030.8
2019-03-29T12:57:20.729Z,1030.6
2019-03-29T13:02:20.709Z,1030.6
2019-03-29T13:07:20.730Z,1030.4
2019-03-29T13:12:20.754Z,1030.6
2019-03-29T13:17:20.676Z,1030.4
2019-03-29T13:22:20.940Z,1030.3
2019-03-29T13:27:20.734Z,1030.2
2019-03-29T13:32:20.732Z,1030.1
2019-03-29T13:37:20.780Z,1030.1
2019-03-29T13:42:20.754Z,1030
2019-03-29T13:47:20.812Z,1029.9
2019-03-29T13:52:20.736Z,1029.9
2019-03-29T13:57:20.740Z,1029.9
2019-03-29T14:02:20.801Z,1029.7
2019-03-29T14:07:20.737Z,1029.6
2019-03-29T14:12:20.751Z,1029.6
2019-03-29T14:17:20.772Z,1029.7
2019-03-29T14:22:20.777Z,1029.6
2019-03-29T14:27:20.754Z,1029.6
2019-03-29T14:32:20.793Z,1029.5
2019-03-29T14:37:20.775Z,1029.4
2019-03-29T14:42:20.768Z,1029.3
2019-03-29T14:47:20.773Z,1029.3
2019-03-29T14:52:20.769Z,1029.1
2019-03-29T14:57:20.879Z,1029.1
2019-03-29T15:02:22.697Z,1029.1
2019-03-29T15:07:20.828Z,1029.2
2019-03-29T15:12:20.787Z,1029.2
2019-03-29T15:17:21.998Z,1029
2019-03-29T15:22:20.779Z,1029.1
2019-03-29T15:27:20.780Z,1029.1
2019-03-29T15:32:20.923Z,1029.1
2019-03-29T15:37:20.799Z,1029.1
2019-03-29T15:42:21.127Z,1029
2019-03-29T15:47:20.797Z,1029.1
2019-03-29T15:52:20.792Z,1029.1
2019-03-29T15:57:20.867Z,1029.1
2019-03-29T16:02:20.865Z,1029.1
2019-03-29T16:07:21.037Z,1029.1
2019-03-29T16:12:20.840Z,1029.3
2019-03-29T16:17:20.821Z,1029.2
2019-03-29T16:22:20.880Z,1029.2
2019-03-29T16:27:20.877Z,1029.2
2019-03-29T16:32:20.831Z,1029.3
2019-03-29T16:37:20.971Z,1029.2
2019-03-29T16:42:20.842Z,1029.3
2019-03-29T16:47:20.826Z,1029.4
2019-03-29T16:52:20.827Z,1029.3
2019-03-29T16:57:20.866Z,1029.2
2019-03-29T17:02:20.854Z,1029.3
2019-03-29T17:07:20.876Z,1029.4
2019-03-29T17:12:20.835Z,1029.4
2019-03-29T17:17:20.852Z,1029.3
2019-03-29T17:22:20.959Z,1029.2
2019-03-29T17:27:20.839Z,1029.3
2019-03-29T17:32:22.125Z,1029.4
2019-03-29T17:37:22.225Z,1029.5
2019-03-29T17:42:22.974Z,1029.5
2019-03-29T17:47:20.876Z,1029.5
2019-03-29T17:52:20.870Z,1029.5
2019-03-29T17:57:21.548Z,1029.6
2019-03-29T18:02:20.871Z,1029.6
2019-03-29T18:07:21.011Z,1029.7
2019-03-29T18:12:20.838Z,1029.6
2019-03-29T18:17:20.904Z,1029.7
2019-03-29T18:22:20.893Z,1029.7
2019-03-29T18:27:20.877Z,1029.8
2019-03-29T18:32:20.899Z,1029.8
2019-03-29T18:37:20.976Z,1029.8
2019-03-29T18:42:20.935Z,1029.9
2019-03-29T18:47:21.067Z,1029.9
2019-03-29T18:52:20.944Z,1029.9
2019-03-29T18:57:21.362Z,1029.9
2019-03-29T19:02:20.966Z,1029.9
2019-03-29T19:07:20.903Z,1029.9
2019-03-29T19:12:21.560Z,1029.9
2019-03-29T19:17:25.287Z,1030
2019-03-29T19:22:22.327Z,1030
2019-03-29T19:27:20.982Z,1029.9
2019-03-29T19:32:21.154Z,1029.9
2019-03-29T19:37:20.984Z,1029.8
2019-03-29T19:42:22.385Z,1029.8
2019-03-29T19:47:20.974Z,1029.9
2019-03-29T19:52:20.987Z,1029.9
2019-03-29T19:57:21.095Z,1029.8
2019-03-29T20:02:21.085Z,1029.9
2019-03-29T20:07:21.005Z,1029.9
2019-03-29T20:12:21.026Z,1030
2019-03-29T20:17:28.543Z,1030
2019-03-29T20:22:21.002Z,1030
2019-03-29T20:27:21.195Z,1030.1
2019-03-29T20:32:20.986Z,1030
2019-03-29T20:37:21.015Z,1030
2019-03-29T20:42:21.017Z,1030
2019-03-29T20:47:22.143Z,1030
2019-03-29T20:52:23.833Z,1030
2019-03-29T20:57:21.143Z,1030.1
2019-03-29T21:02:20.998Z,1030.1
2019-03-29T21:07:21.157Z,1030
2019-03-29T21:12:20.986Z,1030
2019-03-29T21:17:21.004Z,1030
2019-03-29T21:22:21.016Z,1030
2019-03-29T21:27:20.991Z,1030
2019-03-29T21:32:20.983Z,1029.9
2019-03-29T21:37:23.838Z,1029.9
2019-03-29T21:42:21.026Z,1029.9
2019-03-29T21:47:20.991Z,1029.9
2019-03-29T21:52:21.016Z,1029.9
2019-03-29T21:57:21.006Z,1029.8
2019-03-29T22:02:22.026Z,1029.9
2019-03-29T22:07:21.065Z,1029.8
2019-03-29T22:12:20.951Z,1029.8
2019-03-29T22:17:20.994Z,1029.8
2019-03-29T22:22:21.017Z,1029.7
2019-03-29T22:27:20.989Z,1029.8
2019-03-29T22:32:21.009Z,1029.8
2019-03-29T22:37:21.012Z,1029.7
2019-03-29T22:42:20.990Z,1029.8
2019-03-29T22:47:21.034Z,1029.9
2019-03-29T22:52:21.050Z,1029.8
2019-03-29T22:57:21.039Z,1029.8
2019-03-29T23:02:21.025Z,1029.8
2019-03-29T23:07:21.029Z,1029.8
2019-03-29T23:12:21.016Z,1029.7
2019-03-29T23:17:21.039Z,1029.7
2019-03-29T23:22:21.062Z,1029.7
2019-03-29T23:27:21.032Z,1029.7
2019-03-29T23:32:21.033Z,1029.7
2019-03-29T23:37:21.054Z,1029.5
2019-03-29T23:42:21.107Z,1029.6
2019-03-29T23:47:21.038Z,1029.7
2019-03-29T23:52:21.047Z,1029.7
2019-03-29T23:57:21.055Z,1029.6
